Rocky Point, NC (28457)

3:33 PM EDT on August 03, 2015 (GMT -0400)
St. Helena | | Change Station
CLOSE
Current Station
Personal Weather Station
Location: Burgaw, NC
Elevation: 49 ft
Nearby Weather Stations

Elev 49 ft 34.51 °N, 77.91 °W | Updated 3 minutes ago

Thunderstorm
Thunderstorm
76.1 °F
Feels Like 76 °F
N
3.0
Wind Variable Wind from WSW
Gusts 3.0 mph

Today
High -- | Low -- °F
--% Chance of Precip.
Yesterday
High -- | Low -- °F
Precip. -- in
6:23 AM 8:11 PM
Waning Gibbous, 84% visible
Pressure 29.98 in
Visibility 4.0 miles
Clouds Scattered Clouds 2900 ft
Mostly Cloudy 7000 ft
Overcast 9000 ft
Heat Index 76 °F
Dew Point 73 °F
Humidity 91%
Rainfall 0.10 in
Snow Depth Not available.
UV 1.2 out of 12
Pollen .60 out of 12
Air Quality Not available.
Flu Activity Not available.
SPECI KILM 031924Z 00000KT 4SM -TSRA BR SCT029 BKN070 OVC090 23/22 A2998 RMK AO2 P0040 T02280222

More Conditions Fewer Conditions

Pressure 29.98 in
Visibility 4.0 miles
Clouds Scattered Clouds 2900 ft
Mostly Cloudy 7000 ft
Overcast 9000 ft
Heat Index 76 °F
Dew Point 73 °F
Humidity 91%
Rainfall 0.10 in
Snow Depth Not available.
UV 1.2 out of 12
Pollen .60 out of 12
Air Quality Not available.
Flu Activity Not available.
SPECI KILM 031924Z 00000KT 4SM -TSRA BR SCT029 BKN070 OVC090 23/22 A2998 RMK AO2 P0040 T02280222

More Conditions Fewer Conditions

10-Day Weather Forecast

×

Almanac

Astronomy

Aug. 03, 2015 Rise Set
Actual Time
Civil Twilight
Nautical Twilight
Astronomical Twilight
Moon
Length of Visible Light
Length of Day
Tomorrow will be .
, % of the Moon is Illuminated

Today's Extremes

State Highs State Lows

Community

WunderPhotos

Upload Photos

1,843,714 photos uploaded!

WunderBlogs® & News

Nearby

Air Quality

  Air Quality AQ Index Pollutant
Not available.

Snow Depth

Station Depth Elevation

Earthquake Activity

City Distance Mag. Time & Date
Minimum magnitude displayed is 2.5.

Coastal Water Temperatures

Place Temperature

Stations

Nearby Weather Stations

Station Location Temp. Windchill Dew Point Humidity Wind Precip. Elev Updated Type